Time;durP1;ratioP1;P1;durP2;ratioP2;P2;SDS_P1;SDS_P2;PMS_P1;PMS_P2;Temp;Humidity;BMP_temperature;BMP_pressure;BME280_temperature;BME280_humidity;BME280_pressure;Samples;Min_cycle;Max_cycle;Signal;HPM_P1;HPM_P2
2022/05/09 00:00:19;;;;;;;;;;;;;;;10.26;100.00;99282.81;3207551;23;20236;-81
2022/05/09 00:01:51;;;;;;;;;;;;;;;10.28;100.00;99278.41;3207997;23;19931;-79
2022/05/09 00:03:06;;;;;;;;;;;;;;;10.28;100.00;99275.78;3207800;23;19927;-79
2022/05/09 00:04:22;;;;;;;;;;;;;;;10.28;100.00;99281.03;3207513;23;19973;-80
2022/05/09 00:05:38;;;;;;;;;;;;;;;10.30;100.00;99279.25;3207782;23;19975;-80
2022/05/09 00:06:53;;;;;;;;;;;;;;;10.28;100.00;99273.16;3207330;23;19977;-80
2022/05/09 00:08:09;;;;;;;;;;;;;;;10.28;100.00;99281.03;3207721;23;19924;-79
2022/05/09 00:09:24;;;;;;;;;;;;;;;10.28;100.00;99273.16;3207443;23;19920;-80
2022/05/09 00:10:40;;;;;;;;;;;;;;;10.28;100.00;99273.16;3207399;23;19926;-80
2022/05/09 00:11:55;;;;;;;;;;;;;;;10.29;100.00;99279.28;3207692;23;20605;-79
2022/05/09 00:13:10;;;;;;;;;;;;;;;10.30;100.00;99271.41;3207610;23;19923;-85
2022/05/09 00:14:27;;;;;;;;;;;;;;;10.27;100.00;99276.69;3208275;23;19990;-83
2022/05/09 00:15:42;;;;;;;;;;;;;;;10.25;100.00;99278.44;3208654;23;19931;-82
2022/05/09 00:16:58;;;;;;;;;;;;;;;10.20;100.00;99275.03;3208263;23;19946;-80
2022/05/09 00:18:13;;;;;;;;;;;;;;;10.21;100.00;99273.28;3208097;23;20309;-81
2022/05/09 00:19:29;;;;;;;;;;;;;;;10.22;100.00;99272.38;3208208;23;20020;-81
2022/05/09 00:20:44;;;;;;;;;;;;;;;10.24;100.00;99274.09;3208332;23;19924;-80
2022/05/09 00:22:00;;;;;;;;;;;;;;;10.26;100.00;99280.19;3208817;23;20335;-80
2022/05/09 00:23:15;;;;;;;;;;;;;;;10.27;100.00;99270.59;3207277;23;20272;-80
2022/05/09 00:24:30;;;;;;;;;;;;;;;10.26;100.00;99269.72;3208461;23;20348;-80
2022/05/09 00:25:46;;;;;;;;;;;;;;;10.28;100.00;99269.72;3208438;23;19930;-80
2022/05/09 00:27:02;;;;;;;;;;;;;;;10.27;100.00;99270.59;3207595;23;19926;-79
2022/05/09 00:28:18;;;;;;;;;;;;;;;10.26;100.00;99268.84;3208561;23;19924;-82
2022/05/09 00:29:33;;;;;;;;;;;;;;;10.24;100.00;99274.09;3207861;23;20347;-80
2022/05/09 00:30:49;;;;;;;;;;;;;;;10.24;100.00;99265.38;3207911;23;19924;-80
2022/05/09 00:32:05;;;;;;;;;;;;;;;10.24;100.00;99270.63;3208077;23;20403;-83
2022/05/09 00:33:20;;;;;;;;;;;;;;;10.21;100.00;99266.31;3208453;23;19948;-80
2022/05/09 00:34:37;;;;;;;;;;;;;;;10.18;100.00;99266.31;3208218;23;19924;-80
2022/05/09 00:35:53;;;;;;;;;;;;;;;10.21;100.00;99260.19;3208496;23;19996;-83
2022/05/09 00:37:08;;;;;;;;;;;;;;;10.29;100.00;99267.06;3208159;23;19928;-81
2022/05/09 00:38:24;;;;;;;;;;;;;;;10.29;100.00;99264.44;3208440;23;19924;-80
2022/05/09 00:39:40;;;;;;;;;;;;;;;10.25;100.00;99262.75;3208070;23;19928;-80
2022/05/09 00:42:29;;;;;;;;;;;;;;;10.43;100.00;99263.41;3212826;23;19989;-83
2022/05/09 00:43:45;;;;;;;;;;;;;;;10.39;100.00;99265.16;3208042;23;19928;-80
2022/05/09 00:45:01;;;;;;;;;;;;;;;10.32;100.00;99263.53;3208075;23;19944;-83
2022/05/09 00:46:16;;;;;;;;;;;;;;;10.26;100.00;99264.47;3209074;23;19924;-81
2022/05/09 00:47:32;;;;;;;;;;;;;;;10.25;100.00;99260.13;3209121;23;19950;-81
2022/05/09 00:48:48;;;;;;;;;;;;;;;10.18;100.00;99258.47;3209033;23;19924;-79
2022/05/09 00:50:05;;;;;;;;;;;;;;;10.16;100.00;99263.75;3209037;23;19924;-79
2022/05/09 00:51:25;;;;;;;;;;;;;;;10.21;100.00;99263.69;3208921;23;19923;-79
2022/05/09 00:53:07;;;;;;;;;;;;;;;10.21;100.00;99261.06;3208807;23;20613;-81
2022/05/09 00:54:23;;;;;;;;;;;;;;;10.21;100.00;99260.19;3202837;23;19930;-80
2022/05/09 00:55:47;;;;;;;;;;;;;;;10.20;100.00;99259.34;3209242;23;19957;-80
2022/05/09 00:57:07;;;;;;;;;;;;;;;10.16;100.00;99266.34;3213668;23;19923;-80
2022/05/09 00:58:43;;;;;;;;;;;;;;;10.13;100.00;99265.53;3208865;23;19931;-79
2022/05/09 01:00:00;;;;;;;;;;;;;;;10.12;100.00;99259.41;3213904;23;19998;-79
2022/05/09 01:01:17;;;;;;;;;;;;;;;10.09;100.00;99262.06;3208959;23;19931;-79
2022/05/09 01:02:33;;;;;;;;;;;;;;;10.11;100.00;99264.69;3208715;23;19950;-79
2022/05/09 01:03:51;;;;;;;;;;;;;;;10.10;100.00;99268.19;3208887;23;20482;-80
2022/05/09 01:05:07;;;;;;;;;;;;;;;10.09;100.00;99266.47;3209113;23;19928;-79
2022/05/09 01:06:23;;;;;;;;;;;;;;;10.09;100.00;99269.06;3209012;23;20287;-81
2022/05/09 01:07:39;;;;;;;;;;;;;;;10.09;100.00;99267.31;3209154;23;20003;-81
2022/05/09 01:08:55;;;;;;;;;;;;;;;10.09;100.00;99263.84;3208751;23;19974;-80
2022/05/09 01:10:11;;;;;;;;;;;;;;;10.11;100.00;99272.53;3208834;23;19919;-80
2022/05/09 01:11:28;;;;;;;;;;;;;;;10.10;100.00;99266.41;3209026;23;19948;-82
2022/05/09 01:12:44;;;;;;;;;;;;;;;10.10;100.00;99263.81;3208395;23;19943;-80
2022/05/09 01:14:03;;;;;;;;;;;;;;;10.09;100.00;99269.94;3208699;23;19924;-80
2022/05/09 01:15:19;;;;;;;;;;;;;;;10.07;100.00;99274.31;3208769;23;19924;-81
2022/05/09 01:16:35;;;;;;;;;;;;;;;10.07;100.00;99263.84;3208707;23;19955;-80
2022/05/09 01:17:51;;;;;;;;;;;;;;;10.08;100.00;99272.59;3208660;23;20419;-80
2022/05/09 01:19:21;;;;;;;;;;;;;;;10.07;100.00;99269.09;3208791;23;19928;-79
2022/05/09 01:20:37;;;;;;;;;;;;;;;10.08;100.00;99269.97;3208602;23;20107;-81
2022/05/09 01:21:52;;;;;;;;;;;;;;;10.10;100.00;99263.81;3209197;23;19956;-80
2022/05/09 01:23:10;;;;;;;;;;;;;;;10.09;100.00;99264.69;3208754;23;19930;-82
2022/05/09 01:24:26;;;;;;;;;;;;;;;10.08;100.00;99270.81;3208766;23;19928;-81
2022/05/09 01:25:42;;;;;;;;;;;;;;;10.06;100.00;99264.75;3208457;23;19935;-80
2022/05/09 01:26:57;;;;;;;;;;;;;;;10.08;100.00;99269.97;3209169;23;20007;-81
2022/05/09 01:28:13;;;;;;;;;;;;;;;10.02;100.00;99271.75;3208479;23;19969;-80
2022/05/09 01:29:47;;;;;;;;;;;;;;;10.03;100.00;99262.16;3208422;23;19923;-80
2022/05/09 01:31:07;;;;;;;;;;;;;;;10.04;100.00;99269.13;3209066;23;19924;-79
2022/05/09 01:32:37;;;;;;;;;;;;;;;10.04;100.00;99274.38;3207859;23;19923;-79
2022/05/09 01:33:53;;;;;;;;;;;;;;;10.08;100.00;99273.44;3208462;23;19990;-85
2022/05/09 01:35:14;;;;;;;;;;;;;;;10.08;100.00;99276.03;3208822;23;19951;-79
2022/05/09 01:36:32;;;;;;;;;;;;;;;10.05;100.00;99273.47;3208304;23;19994;-84
2022/05/09 01:37:50;;;;;;;;;;;;;;;10.06;100.00;99269.09;3208427;23;20136;-81
2022/05/09 01:39:10;;;;;;;;;;;;;;;10.04;100.00;99275.22;3209083;23;19954;-79
2022/05/09 01:40:26;;;;;;;;;;;;;;;10.01;100.00;99274.41;3208791;23;19924;-79
2022/05/09 01:41:43;;;;;;;;;;;;;;;10.00;100.00;99277.91;3208663;23;20033;-80
2022/05/09 01:42:58;;;;;;;;;;;;;;;9.99;100.00;99276.19;3208556;23;19931;-80
2022/05/09 01:44:14;;;;;;;;;;;;;;;9.97;100.00;99278.81;3208614;23;19924;-79
2022/05/09 01:45:30;;;;;;;;;;;;;;;10.00;100.00;99278.75;3208862;23;20347;-80
2022/05/09 01:49:54;;;;;;;;;;;;;;;10.14;100.00;99282.97;3208953;23;19927;-80
2022/05/09 01:51:09;;;;;;;;;;;;;;;10.07;100.00;99279.56;3208766;23;19924;-80
2022/05/09 01:52:26;;;;;;;;;;;;;;;10.03;100.00;99283.94;3208253;23;19924;-82
2022/05/09 01:53:45;;;;;;;;;;;;;;;10.01;100.00;99271.78;3208952;23;19924;-80
2022/05/09 01:55:00;;;;;;;;;;;;;;;9.97;100.00;99276.19;3208771;23;19924;-80
2022/05/09 01:56:20;;;;;;;;;;;;;;;9.94;100.00;99275.34;3208780;23;20306;-80
2022/05/09 01:57:36;;;;;;;;;;;;;;;9.93;100.00;99271.00;3208523;23;20403;-80
2022/05/09 01:58:52;;;;;;;;;;;;;;;9.96;100.00;99277.06;3208611;23;20266;-85
2022/05/09 02:00:08;;;;;;;;;;;;;;;9.95;100.00;99270.13;3208316;23;20332;-80
2022/05/09 02:01:26;;;;;;;;;;;;;;;10.01;100.00;99270.03;3208357;23;20355;-80
2022/05/09 02:02:41;;;;;;;;;;;;;;;10.00;100.00;99270.06;3208042;23;20056;-80
2022/05/09 02:03:56;;;;;;;;;;;;;;;10.13;100.00;99273.38;3208726;23;20371;-81
2022/05/09 02:05:12;;;;;;;;;;;;;;;10.00;100.00;99267.44;3208372;23;19924;-81
2022/05/09 02:06:28;;;;;;;;;;;;;;;9.95;100.00;99267.50;3208693;23;19928;-80
2022/05/09 02:07:45;;;;;;;;;;;;;;;9.89;100.00;99267.56;3208775;23;19920;-79
2022/05/09 02:09:00;;;;;;;;;;;;;;;9.84;100.00;99266.75;3208253;23;19924;-84
2022/05/09 02:10:16;;;;;;;;;;;;;;;9.85;100.00;99273.72;3208619;23;19987;-82
2022/05/09 02:11:32;;;;;;;;;;;;;;;9.96;100.00;99273.56;3208667;23;19946;-80
2022/05/09 02:12:48;;;;;;;;;;;;;;;9.97;100.00;99272.69;3208474;23;19924;-80
2022/05/09 02:14:04;;;;;;;;;;;;;;;9.94;100.00;99270.13;3208595;23;20038;-80
2022/05/09 02:15:19;;;;;;;;;;;;;;;9.92;100.00;99272.78;3208892;23;19924;-84
2022/05/09 02:16:36;;;;;;;;;;;;;;;9.98;100.00;99275.31;3208347;23;19924;-81
2022/05/09 02:17:51;;;;;;;;;;;;;;;9.83;100.00;99275.50;3208631;23;20310;-80
2022/05/09 02:19:06;;;;;;;;;;;;;;;9.73;100.00;99265.13;3208352;23;19928;-80
2022/05/09 02:20:22;;;;;;;;;;;;;;;9.74;100.00;99273.84;3208738;23;19920;-81
2022/05/09 02:21:37;;;;;;;;;;;;;;;9.74;100.00;99271.22;3208645;23;20356;-80
2022/05/09 02:22:53;;;;;;;;;;;;;;;9.74;100.00;99277.31;3208696;23;19931;-81
2022/05/09 02:24:08;;;;;;;;;;;;;;;9.69;100.00;99276.50;3208894;23;19943;-80
2022/05/09 02:25:29;;;;;;;;;;;;;;;9.69;100.00;99278.25;3208185;23;20336;-80
2022/05/09 02:26:44;;;;;;;;;;;;;;;9.73;100.00;99280.81;3208271;23;19931;-83
2022/05/09 02:28:00;;;;;;;;;;;;;;;9.66;100.00;99284.38;3208361;23;19924;-83
2022/05/09 02:29:16;;;;;;;;;;;;;;;9.65;100.00;99287.00;3208627;23;19939;-80
2022/05/09 02:30:31;;;;;;;;;;;;;;;9.60;100.00;99279.22;3208150;23;19968;-80
2022/05/09 02:31:47;;;;;;;;;;;;;;;9.57;100.00;99280.13;3207883;23;20358;-80
2022/05/09 02:33:03;;;;;;;;;;;;;;;9.60;100.00;99289.66;3208051;23;20356;-88
2022/05/09 02:34:19;;;;;;;;;;;;;;;9.55;100.00;99291.47;3208407;23;20359;-82
2022/05/09 02:35:35;;;;;;;;;;;;;;;9.55;100.00;99286.25;3208592;23;20224;-87
2022/05/09 02:36:51;;;;;;;;;;;;;;;9.53;100.00;99288.00;3208533;23;19924;-81
2022/05/09 02:38:07;;;;;;;;;;;;;;;9.53;100.00;99283.63;3208293;23;20026;-80
2022/05/09 02:39:22;;;;;;;;;;;;;;;9.59;100.00;99290.56;3208958;23;19955;-80
2022/05/09 02:40:37;;;;;;;;;;;;;;;9.60;100.00;99289.66;3208736;23;19959;-80
2022/05/09 02:41:53;;;;;;;;;;;;;;;9.55;100.00;99289.72;3208300;23;19924;-82
2022/05/09 02:43:09;;;;;;;;;;;;;;;9.52;100.00;99296.75;3208663;23;19924;-81
2022/05/09 02:44:25;;;;;;;;;;;;;;;9.50;100.00;99293.25;3208588;23;20731;-86
2022/05/09 02:45:40;;;;;;;;;;;;;;;9.51;100.00;99295.00;3208579;23;19998;-81
2022/05/09 02:46:56;;;;;;;;;;;;;;;9.51;100.00;99301.09;3208446;23;20259;-80
2022/05/09 02:48:12;;;;;;;;;;;;;;;9.43;100.00;99298.53;3208674;23;19930;-81
2022/05/09 02:49:27;;;;;;;;;;;;;;;9.47;100.00;99295.00;3208426;23;19931;-80
2022/05/09 02:50:42;;;;;;;;;;;;;;;9.48;100.00;99298.50;3208617;23;19924;-80
2022/05/09 02:51:59;;;;;;;;;;;;;;;9.46;100.00;99297.66;3208504;23;19920;-80
2022/05/09 02:53:14;;;;;;;;;;;;;;;9.46;100.00;99295.91;3208230;23;19924;-81
2022/05/09 02:54:29;;;;;;;;;;;;;;;9.43;100.00;99301.16;3208300;23;20006;-81
2022/05/09 02:55:45;;;;;;;;;;;;;;;9.42;100.00;99298.53;3208589;23;19924;-82
2022/05/09 02:57:01;;;;;;;;;;;;;;;9.41;100.00;99296.81;3208242;23;19924;-80
2022/05/09 02:58:16;;;;;;;;;;;;;;;9.45;100.00;99296.78;3208494;23;19986;-81
2022/05/09 02:59:31;;;;;;;;;;;;;;;9.45;100.00;99301.16;3208240;23;19924;-82
2022/05/09 03:00:47;;;;;;;;;;;;;;;9.41;100.00;99299.44;3208084;23;20302;-81
2022/05/09 03:02:03;;;;;;;;;;;;;;;9.40;100.00;99301.19;3208028;23;19928;-81
2022/05/09 03:04:52;;;;;;;;;;;;;;;9.45;100.00;99294.16;3208469;23;19924;-81
2022/05/09 03:06:07;;;;;;;;;;;;;;;9.45;100.00;99301.16;3207891;23;19999;-82
2022/05/09 03:07:23;;;;;;;;;;;;;;;9.43;100.00;99295.94;3208558;23;20375;-80
2022/05/09 03:08:39;;;;;;;;;;;;;;;9.40;100.00;99295.97;3208131;23;19969;-81
2022/05/09 03:09:55;;;;;;;;;;;;;;;9.35;100.00;99297.75;3207760;23;19928;-80
2022/05/09 03:11:10;;;;;;;;;;;;;;;9.28;100.00;99306.53;3208245;23;19943;-80
2022/05/09 03:12:26;;;;;;;;;;;;;;;9.22;100.00;99301.34;3207740;23;20248;-84
2022/05/09 03:13:41;;;;;;;;;;;;;;;9.20;100.00;99301.38;3208090;23;20440;-86
2022/05/09 03:14:57;;;;;;;;;;;;;;;9.16;100.00;99302.28;3208576;23;19928;-81
2022/05/09 03:16:12;;;;;;;;;;;;;;;9.13;100.00;99299.69;3208172;23;19991;-85
2022/05/09 03:17:28;;;;;;;;;;;;;;;9.06;100.00;99296.25;3208417;23;20271;-80
2022/05/09 03:18:43;;;;;;;;;;;;;;;8.99;100.00;99300.66;3208085;23;20239;-80
2022/05/09 03:19:58;;;;;;;;;;;;;;;9.00;100.00;99304.16;3208399;23;19924;-80
2022/05/09 03:21:14;;;;;;;;;;;;;;;8.96;100.00;99305.91;3208535;23;19923;-80
2022/05/09 03:22:29;;;;;;;;;;;;;;;8.92;100.00;99301.59;3208210;23;19924;-81
2022/05/09 03:23:45;;;;;;;;;;;;;;;8.91;100.00;99312.91;3208552;23;19923;-82
2022/05/09 03:25:01;;;;;;;;;;;;;;;8.89;100.00;99309.47;3207752;23;19923;-80
2022/05/09 03:26:16;;;;;;;;;;;;;;;8.86;100.00;99315.56;3208065;23;20347;-80
2022/05/09 03:27:32;;;;;;;;;;;;;;;8.83;100.00;99317.31;3207183;23;20352;-80
2022/05/09 03:28:47;;;;;;;;;;;;;;;8.81;100.00;99319.06;3208113;23;20029;-80
2022/05/09 03:30:02;;;;;;;;;;;;;;;8.79;100.00;99316.47;3207661;23;19923;-80
2022/05/09 03:31:19;;;;;;;;;;;;;;;8.75;100.00;99314.75;3207472;23;20263;-81
2022/05/09 03:32:35;;;;;;;;;;;;;;;8.72;100.00;99317.38;3207485;23;20115;-84
2022/05/09 03:33:51;;;;;;;;;;;;;;;8.68;100.00;99313.06;3207404;23;19924;-81
2022/05/09 03:35:07;;;;;;;;;;;;;;;8.65;100.00;99315.69;3207229;23;19927;-80
2022/05/09 03:36:22;;;;;;;;;;;;;;;8.53;100.00;99319.25;3207772;23;20312;-80
2022/05/09 03:37:38;;;;;;;;;;;;;;;8.41;100.00;99323.59;3205039;23;19924;-80
2022/05/09 03:38:53;;;;;;;;;;;;;;;8.36;100.00;99322.78;3207817;23;20291;-80
2022/05/09 03:40:09;;;;;;;;;;;;;;;8.34;100.00;99324.53;3207870;23;19954;-79
2022/05/09 03:41:24;;;;;;;;;;;;;;;8.28;100.00;99322.81;3207989;23;19947;-81
2022/05/09 03:42:40;;;;;;;;;;;;;;;8.22;100.00;99322.81;3206422;23;19999;-81
2022/05/09 03:43:56;;;;;;;;;;;;;;;8.19;100.00;99321.13;3207659;23;20236;-80
2022/05/09 03:45:12;;;;;;;;;;;;;;;8.20;100.00;99322.84;3208078;23;19924;-80
2022/05/09 03:46:27;;;;;;;;;;;;;;;8.17;100.00;99324.59;3207770;23;20279;-83
2022/05/09 03:47:43;;;;;;;;;;;;;;;8.18;100.00;99327.22;3207359;23;19991;-81
2022/05/09 03:49:03;;;;;;;;;;;;;;;8.16;100.00;99333.28;3207700;23;19927;-80
2022/05/09 03:50:18;;;;;;;;;;;;;;;8.12;100.00;99336.78;3207432;23;19930;-84
2022/05/09 03:51:35;;;;;;;;;;;;;;;8.09;100.00;99336.78;3207393;23;20255;-85
2022/05/09 03:52:50;;;;;;;;;;;;;;;8.03;100.00;99343.75;3207009;23;19931;-80
2022/05/09 03:54:06;;;;;;;;;;;;;;;8.05;100.00;99342.00;3206827;23;19920;-80
2022/05/09 03:55:21;;;;;;;;;;;;;;;8.08;100.00;99342.88;3206974;23;19926;-80
2022/05/09 03:56:37;;;;;;;;;;;;;;;8.10;100.00;99342.00;3206952;23;19999;-81
2022/05/09 03:57:54;;;;;;;;;;;;;;;8.12;100.00;99344.63;3207352;23;19947;-84
2022/05/09 03:59:09;;;;;;;;;;;;;;;8.12;100.00;99342.00;3206994;23;19927;-81
2022/05/09 04:00:26;;;;;;;;;;;;;;;8.12;100.00;99337.66;3206724;23;19995;-81
2022/05/09 04:01:42;;;;;;;;;;;;;;;8.13;100.00;99330.69;3207546;23;20248;-80
2022/05/09 04:02:58;;;;;;;;;;;;;;;8.13;100.00;99342.00;3207466;23;19928;-81
2022/05/09 04:04:14;;;;;;;;;;;;;;;8.12;100.00;99337.66;3207690;23;20334;-81
2022/05/09 04:05:32;;;;;;;;;;;;;;;8.10;100.00;99339.41;3207724;23;19933;-81
2022/05/09 04:06:51;;;;;;;;;;;;;;;8.06;100.00;99341.13;3207421;23;19927;-81
2022/05/09 04:08:08;;;;;;;;;;;;;;;8.09;100.00;99342.88;3207516;23;19931;-80
2022/05/09 04:09:23;;;;;;;;;;;;;;;8.06;100.00;99337.69;3207467;23;19924;-82
2022/05/09 04:10:40;;;;;;;;;;;;;;;8.06;100.00;99346.34;3207592;23;19930;-81
2022/05/09 04:11:55;;;;;;;;;;;;;;;8.08;100.00;99342.88;3207786;23;19948;-81
2022/05/09 04:13:11;;;;;;;;;;;;;;;8.10;100.00;99346.34;3207555;23;19994;-82
2022/05/09 04:17:35;;;;;;;;;;;;;;;8.23;100.00;99347.19;3207407;23;19924;-81
2022/05/09 04:18:52;;;;;;;;;;;;;;;8.25;100.00;99346.31;3207275;23;20420;-80
2022/05/09 04:20:08;;;;;;;;;;;;;;;8.29;100.00;99349.75;3208219;23;19924;-81
2022/05/09 04:21:24;;;;;;;;;;;;;;;8.30;100.00;99349.75;3208909;23;19995;-80
2022/05/09 04:22:40;;;;;;;;;;;;;;;8.34;100.00;99353.22;3208118;23;19990;-81
2022/05/09 04:23:56;;;;;;;;;;;;;;;8.37;100.00;99354.94;3208503;23;19924;-82
2022/05/09 04:25:12;;;;;;;;;;;;;;;8.38;100.00;99359.28;3209133;23;19974;-82
2022/05/09 04:26:28;;;;;;;;;;;;;;;8.40;100.00;99354.94;3208636;23;19928;-81
2022/05/09 04:27:43;;;;;;;;;;;;;;;8.42;100.00;99359.25;3208831;23;19924;-81
2022/05/09 04:29:00;;;;;;;;;;;;;;;8.43;100.00;99358.38;3208814;23;19923;-81
2022/05/09 04:30:16;;;;;;;;;;;;;;;8.44;100.00;99354.06;3209152;23;20378;-82
2022/05/09 04:31:31;;;;;;;;;;;;;;;8.57;100.00;99358.38;3208978;23;19923;-82
2022/05/09 04:32:46;;;;;;;;;;;;;;;8.56;100.00;99359.25;3207827;23;19935;-81
2022/05/09 04:34:03;;;;;;;;;;;;;;;8.56;100.00;99361.84;3208601;23;19931;-81
2022/05/09 04:35:20;;;;;;;;;;;;;;;8.54;100.00;99361.00;3208421;23;19923;-82
2022/05/09 04:36:38;;;;;;;;;;;;;;;8.53;100.00;99366.22;3208288;23;19946;-81
2022/05/09 04:37:54;;;;;;;;;;;;;;;8.52;100.00;99357.53;3207861;23;19959;-82
2022/05/09 04:39:10;;;;;;;;;;;;;;;8.51;100.00;99355.78;3208231;23;19927;-81
2022/05/09 04:40:28;;;;;;;;;;;;;;;8.50;100.00;99361.88;3208518;23;19938;-84
2022/05/09 04:41:43;;;;;;;;;;;;;;;8.52;100.00;99360.16;3208206;23;19974;-82
2022/05/09 04:42:59;;;;;;;;;;;;;;;8.55;100.00;99367.97;3208339;23;19924;-81
2022/05/09 04:44:15;;;;;;;;;;;;;;;8.60;100.00;99368.78;3207490;23;20374;-81
2022/05/09 04:45:31;;;;;;;;;;;;;;;8.61;100.00;99367.91;3207897;23;19920;-81
2022/05/09 04:46:47;;;;;;;;;;;;;;;8.68;100.00;99365.28;3208424;23;20335;-82
2022/05/09 04:48:03;;;;;;;;;;;;;;;8.69;100.00;99369.63;3208786;23;19924;-83
2022/05/09 04:49:18;;;;;;;;;;;;;;;8.68;100.00;99362.69;3209038;23;19920;-81
2022/05/09 04:50:34;;;;;;;;;;;;;;;8.76;100.00;99363.47;3208913;23;19966;-82
2022/05/09 04:51:50;;;;;;;;;;;;;;;8.81;100.00;99366.97;3208526;23;20434;-84
2022/05/09 04:53:05;;;;;;;;;;;;;;;8.78;100.00;99360.88;3208494;23;19995;-83
2022/05/09 04:54:21;;;;;;;;;;;;;;;8.76;100.00;99368.72;3208511;23;19993;-82
2022/05/09 04:55:36;;;;;;;;;;;;;;;8.72;100.00;99367.84;3208855;23;19947;-82
2022/05/09 04:56:52;;;;;;;;;;;;;;;8.80;100.00;99367.84;3208611;23;20294;-86
2022/05/09 04:58:10;;;;;;;;;;;;;;;8.81;100.00;99371.28;3208734;23;20389;-82
2022/05/09 04:59:26;;;;;;;;;;;;;;;8.92;100.00;99368.63;3208995;23;19948;-83
2022/05/09 05:00:41;;;;;;;;;;;;;;;8.97;100.00;99366.84;3208790;23;19931;-84
2022/05/09 05:01:56;;;;;;;;;;;;;;;9.00;100.00;99372.06;3208103;23;20087;-82
2022/05/09 05:03:12;;;;;;;;;;;;;;;8.96;100.00;99365.13;3208562;23;19924;-84
2022/05/09 05:04:28;;;;;;;;;;;;;;;8.89;100.00;99372.13;3208677;23;19962;-82
2022/05/09 05:05:43;;;;;;;;;;;;;;;8.92;100.00;99374.72;3208293;23;19962;-81
2022/05/09 05:06:59;;;;;;;;;;;;;;;8.91;100.00;99375.59;3208153;23;19924;-81
2022/05/09 05:08:14;;;;;;;;;;;;;;;8.97;100.00;99372.09;3208263;23;20412;-83
2022/05/09 05:09:31;;;;;;;;;;;;;;;8.89;100.00;99367.75;3208707;23;19924;-86
2022/05/09 05:10:52;;;;;;;;;;;;;;;8.96;100.00;99373.81;3207972;23;19944;-87
2022/05/09 05:12:08;;;;;;;;;;;;;;;9.09;100.00;99372.00;3213276;23;19934;-83
2022/05/09 05:13:24;;;;;;;;;;;;;;;9.14;100.00;99377.16;3207950;23;19924;-84
2022/05/09 05:14:44;;;;;;;;;;;;;;;9.11;100.00;99375.47;3208237;23;19920;-82
2022/05/09 05:16:00;;;;;;;;;;;;;;;9.17;100.00;99382.41;3208251;23;19967;-87
2022/05/09 05:17:15;;;;;;;;;;;;;;;9.27;100.00;99375.34;3208055;23;19928;-83
2022/05/09 05:18:32;;;;;;;;;;;;;;;9.28;100.00;99377.09;3208849;23;19920;-84
2022/05/09 05:19:49;;;;;;;;;;;;;;;9.36;100.00;99380.53;3208404;23;19943;-79
2022/05/09 05:21:11;;;;;;;;;;;;;;;9.27;100.00;99378.81;3208967;23;20416;-79
2022/05/09 05:22:27;;;;;;;;;;;;;;;9.41;100.00;99378.72;3208621;23;19924;-78
2022/05/09 05:23:44;;;;;;;;;;;;;;;9.50;100.00;99379.50;3209172;23;19966;-79
2022/05/09 05:24:59;;;;;;;;;;;;;;;9.51;100.00;99376.91;3209311;23;20002;-80
2022/05/09 05:26:15;;;;;;;;;;;;;;;9.56;100.00;99379.47;3208739;23;19924;-80
2022/05/09 05:27:30;;;;;;;;;;;;;;;9.52;100.00;99377.78;3208699;23;19970;-81
2022/05/09 05:28:45;;;;;;;;;;;;;;;9.47;100.00;99381.28;3208945;23;19924;-82
2022/05/09 05:30:02;;;;;;;;;;;;;;;9.54;100.00;99386.47;3208914;23;19924;-81
2022/05/09 05:31:20;;;;;;;;;;;;;;;9.59;100.00;99384.66;3208726;23;20665;-85
2022/05/09 05:32:37;;;;;;;;;;;;;;;9.75;100.00;99377.56;3208442;23;19935;-80
2022/05/09 05:33:52;;;;;;;;;;;;;;;9.73;100.00;99379.31;3209038;23;19919;-80
2022/05/09 05:35:11;;;;;;;;;;;;;;;9.79;100.00;99392.34;3208858;23;20347;-81
2022/05/09 05:36:27;;;;;;;;;;;;;;;9.73;100.00;99390.63;3208844;23;20237;-83
2022/05/09 05:37:42;;;;;;;;;;;;;;;9.77;100.00;99394.09;3208142;23;20025;-81
2022/05/09 05:38:57;;;;;;;;;;;;;;;9.74;100.00;99395.00;3208646;23;20376;-84
2022/05/09 05:40:14;;;;;;;;;;;;;;;9.85;100.00;99391.41;3209097;23;19928;-81
2022/05/09 05:41:31;;;;;;;;;;;;;;;9.84;100.00;99387.06;3208692;23;19924;-80
2022/05/09 05:42:50;;;;;;;;;;;;;;;9.97;100.00;99387.78;3208808;23;19920;-81
2022/05/09 05:44:08;;;;;;;;;;;;;;;9.94;100.00;99393.06;3209078;23;20358;-84
2022/05/09 05:45:26;;;;;;;;;;;;;;;10.01;100.00;99392.13;3207591;23;20373;-81
2022/05/09 05:46:41;;;;;;;;;;;;;;;10.10;100.00;99392.00;3208821;23;19978;-81
2022/05/09 05:47:57;;;;;;;;;;;;;;;10.19;100.00;99391.03;3208572;23;20405;-80
2022/05/09 05:49:12;;;;;;;;;;;;;;;10.21;100.00;99391.91;3208723;23;19995;-81
2022/05/09 05:50:28;;;;;;;;;;;;;;;10.21;100.00;99389.31;3208775;23;20038;-83
2022/05/09 05:51:43;;;;;;;;;;;;;;;10.29;100.00;99395.31;3208693;23;19924;-86
2022/05/09 05:52:59;;;;;;;;;;;;;;;10.43;100.00;99397.81;3208650;23;19999;-81
2022/05/09 05:54:14;;;;;;;;;;;;;;;10.56;100.00;99398.50;3208769;23;20260;-82
2022/05/09 05:55:30;;;;;;;;;;;;;;;10.49;100.00;99399.47;3209030;23;19958;-82
2022/05/09 05:56:45;;;;;;;;;;;;;;;10.58;100.00;99398.50;3208981;23;19955;-80
2022/05/09 05:58:01;;;;;;;;;;;;;;;10.60;100.00;99389.72;3208754;23;19919;-80
2022/05/09 05:59:16;;;;;;;;;;;;;;;10.64;100.00;99397.56;3208999;23;19923;-81
2022/05/09 06:00:32;;;;;;;;;;;;;;;10.80;100.00;99390.34;3208934;23;19924;-81
2022/05/09 06:01:47;;;;;;;;;;;;;;;10.96;100.00;99398.88;3209085;23;19927;-80
2022/05/09 06:03:03;;;;;;;;;;;;;;;10.97;100.00;99395.34;3208803;23;20022;-80
2022/05/09 06:04:19;;;;;;;;;;;;;;;10.97;100.00;99397.97;3209556;23;19920;-80
2022/05/09 06:05:35;;;;;;;;;;;;;;;11.06;100.00;99396.97;3209345;23;20018;-81
2022/05/09 06:06:50;;;;;;;;;;;;;;;11.21;100.00;99390.66;3209399;23;20260;-81
2022/05/09 06:08:06;;;;;;;;;;;;;;;11.32;100.00;99388.75;3209061;23;19924;-81
2022/05/09 06:09:21;;;;;;;;;;;;;;;11.35;100.00;99391.31;3208841;23;19923;-81
2022/05/09 06:10:37;;;;;;;;;;;;;;;11.31;100.00;99392.22;3208805;23;19967;-83
2022/05/09 06:11:53;;;;;;;;;;;;;;;11.38;100.00;99390.38;3208583;23;19999;-83
2022/05/09 06:13:08;;;;;;;;;;;;;;;11.47;100.00;99398.09;3208815;23;19924;-82
2022/05/09 06:14:23;;;;;;;;;;;;;;;11.53;100.00;99399.75;3208832;23;19924;-83
2022/05/09 06:15:40;;;;;;;;;;;;;;;11.57;99.08;99401.44;3208548;23;19920;-82
2022/05/09 06:16:55;;;;;;;;;;;;;;;11.52;97.27;99396.25;3208870;23;19920;-82
2022/05/09 06:18:13;;;;;;;;;;;;;;;11.55;98.51;99395.34;3208461;23;19923;-89
2022/05/09 06:19:29;;;;;;;;;;;;;;;11.59;97.84;99395.28;3208484;23;19966;-82
2022/05/09 06:20:44;;;;;;;;;;;;;;;11.70;98.78;99402.09;3208613;23;20281;-87
2022/05/09 06:22:00;;;;;;;;;;;;;;;11.78;97.87;99402.81;3208533;23;20015;-85
2022/05/09 06:23:19;;;;;;;;;;;;;;;11.83;96.54;99400.13;3208861;23;19924;-83
2022/05/09 06:24:34;;;;;;;;;;;;;;;11.93;98.90;99401.69;3208581;23;19984;-82
2022/05/09 06:25:50;;;;;;;;;;;;;;;11.96;97.55;99406.88;3208912;23;20010;-81
2022/05/09 06:27:05;;;;;;;;;;;;;;;12.02;97.22;99403.31;3208581;23;19950;-88
2022/05/09 06:28:22;;;;;;;;;;;;;;;12.08;96.85;99400.59;3209324;23;19924;-84
2022/05/09 06:29:38;;;;;;;;;;;;;;;12.18;95.82;99396.03;3208539;23;19954;-81
2022/05/09 06:30:53;;;;;;;;;;;;;;;12.27;96.59;99401.06;3209044;23;19923;-83
2022/05/09 06:32:09;;;;;;;;;;;;;;;12.28;95.86;99405.44;3208402;23;19930;-81
2022/05/09 06:33:25;;;;;;;;;;;;;;;12.40;96.43;99400.84;3208659;23;20002;-81
2022/05/09 06:34:40;;;;;;;;;;;;;;;12.50;96.34;99397.13;3208521;23;19985;-86
2022/05/09 06:35:58;;;;;;;;;;;;;;;12.59;94.67;99396.06;3208652;23;19924;-84
2022/05/09 06:37:13;;;;;;;;;;;;;;;12.71;93.24;99394.94;3208411;23;19928;-83
2022/05/09 06:38:30;;;;;;;;;;;;;;;12.89;93.11;99398.94;3213718;23;19924;-81
2022/05/09 06:39:45;;;;;;;;;;;;;;;12.92;92.78;99398.03;3208530;23;19923;-82
2022/05/09 06:41:01;;;;;;;;;;;;;;;12.92;90.73;99391.00;3208720;23;19947;-82
2022/05/09 06:42:17;;;;;;;;;;;;;;;12.98;91.51;99396.13;3208391;23;20334;-83
2022/05/09 06:43:32;;;;;;;;;;;;;;;13.06;90.91;99398.56;3208089;23;19927;-81
2022/05/09 06:44:47;;;;;;;;;;;;;;;13.12;90.58;99395.78;3208502;23;20621;-82